sensor_id;sensor_type;location;lat;lon;timestamp;P1;durP1;ratioP1;P2;durP2;ratioP2
6852;SDS011;3465;42.144;24.722;2022-09-28T00:01:53;9.23;;;5.40;;
6852;SDS011;3465;42.144;24.722;2022-09-28T00:04:19;9.48;;;5.50;;
6852;SDS011;3465;42.144;24.722;2022-09-28T00:06:45;7.95;;;5.63;;
6852;SDS011;3465;42.144;24.722;2022-09-28T00:09:11;10.05;;;5.63;;
6852;SDS011;3465;42.144;24.722;2022-09-28T00:11:38;11.43;;;5.43;;
6852;SDS011;3465;42.144;24.722;2022-09-28T00:14:04;9.00;;;5.88;;
6852;SDS011;3465;42.144;24.722;2022-09-28T00:16:35;8.27;;;5.70;;
6852;SDS011;3465;42.144;24.722;2022-09-28T00:19:02;8.85;;;6.03;;
6852;SDS011;3465;42.144;24.722;2022-09-28T00:21:32;9.20;;;5.43;;
6852;SDS011;3465;42.144;24.722;2022-09-28T00:24:00;9.88;;;5.57;;
6852;SDS011;3465;42.144;24.722;2022-09-28T00:26:52;7.82;;;5.70;;
6852;SDS011;3465;42.144;24.722;2022-09-28T00:29:29;12.10;;;6.10;;
6852;SDS011;3465;42.144;24.722;2022-09-28T00:31:57;8.05;;;6.07;;
6852;SDS011;3465;42.144;24.722;2022-09-28T00:34:26;10.13;;;5.60;;
6852;SDS011;3465;42.144;24.722;2022-09-28T00:36:55;10.77;;;5.77;;
6852;SDS011;3465;42.144;24.722;2022-09-28T00:39:20;13.10;;;5.85;;
6852;SDS011;3465;42.144;24.722;2022-09-28T00:41:46;12.40;;;8.30;;
6852;SDS011;3465;42.144;24.722;2022-09-28T00:49:47;7.85;;;6.63;;
6852;SDS011;3465;42.144;24.722;2022-09-28T00:52:18;10.05;;;7.80;;
6852;SDS011;3465;42.144;24.722;2022-09-28T00:54:51;13.13;;;8.10;;
6852;SDS011;3465;42.144;24.722;2022-09-28T00:57:18;12.13;;;7.88;;
6852;SDS011;3465;42.144;24.722;2022-09-28T00:59:45;11.20;;;7.70;;
6852;SDS011;3465;42.144;24.722;2022-09-28T01:02:10;11.67;;;7.87;;
6852;SDS011;3465;42.144;24.722;2022-09-28T01:04:36;8.63;;;7.18;;
6852;SDS011;3465;42.144;24.722;2022-09-28T01:07:03;8.03;;;7.10;;
6852;SDS011;3465;42.144;24.722;2022-09-28T01:09:29;9.30;;;6.53;;
6852;SDS011;3465;42.144;24.722;2022-09-28T01:11:56;9.40;;;6.68;;
6852;SDS011;3465;42.144;24.722;2022-09-28T01:14:21;8.00;;;6.00;;
6852;SDS011;3465;42.144;24.722;2022-09-28T01:19:42;10.67;;;5.83;;
6852;SDS011;3465;42.144;24.722;2022-09-28T01:30:09;7.83;;;5.73;;
6852;SDS011;3465;42.144;24.722;2022-09-28T01:32:45;9.50;;;6.40;;
6852;SDS011;3465;42.144;24.722;2022-09-28T01:35:13;15.77;;;6.50;;
6852;SDS011;3465;42.144;24.722;2022-09-28T01:38:06;8.63;;;6.13;;
6852;SDS011;3465;42.144;24.722;2022-09-28T01:40:34;7.57;;;5.37;;
6852;SDS011;3465;42.144;24.722;2022-09-28T01:43:02;14.43;;;5.87;;
6852;SDS011;3465;42.144;24.722;2022-09-28T01:45:33;9.87;;;6.13;;
6852;SDS011;3465;42.144;24.722;2022-09-28T01:48:05;7.38;;;5.63;;
6852;SDS011;3465;42.144;24.722;2022-09-28T01:50:35;9.67;;;5.77;;
6852;SDS011;3465;42.144;24.722;2022-09-28T01:53:11;10.20;;;5.57;;
6852;SDS011;3465;42.144;24.722;2022-09-28T01:55:44;8.77;;;6.13;;
6852;SDS011;3465;42.144;24.722;2022-09-28T01:58:17;10.27;;;5.73;;
6852;SDS011;3465;42.144;24.722;2022-09-28T02:00:45;6.70;;;5.30;;
6852;SDS011;3465;42.144;24.722;2022-09-28T02:06:15;9.63;;;5.53;;
6852;SDS011;3465;42.144;24.722;2022-09-28T02:08:57;9.60;;;5.10;;
6852;SDS011;3465;42.144;24.722;2022-09-28T02:11:27;9.93;;;5.03;;
6852;SDS011;3465;42.144;24.722;2022-09-28T02:14:01;7.13;;;4.60;;
6852;SDS011;3465;42.144;24.722;2022-09-28T02:16:38;7.00;;;4.97;;
6852;SDS011;3465;42.144;24.722;2022-09-28T02:19:06;6.50;;;4.90;;
6852;SDS011;3465;42.144;24.722;2022-09-28T02:21:42;7.93;;;4.70;;
6852;SDS011;3465;42.144;24.722;2022-09-28T02:24:35;9.33;;;4.93;;
6852;SDS011;3465;42.144;24.722;2022-09-28T02:27:14;9.03;;;5.03;;
6852;SDS011;3465;42.144;24.722;2022-09-28T02:29:45;8.40;;;5.20;;
6852;SDS011;3465;42.144;24.722;2022-09-28T02:32:11;7.33;;;5.10;;
6852;SDS011;3465;42.144;24.722;2022-09-28T02:34:36;10.10;;;5.00;;
6852;SDS011;3465;42.144;24.722;2022-09-28T02:37:02;6.10;;;5.20;;
6852;SDS011;3465;42.144;24.722;2022-09-28T02:39:27;8.50;;;5.30;;
6852;SDS011;3465;42.144;24.722;2022-09-28T02:47:11;8.50;;;4.87;;
6852;SDS011;3465;42.144;24.722;2022-09-28T03:03:50;10.60;;;5.60;;
6852;SDS011;3465;42.144;24.722;2022-09-28T03:06:24;8.50;;;5.63;;
6852;SDS011;3465;42.144;24.722;2022-09-28T03:11:32;6.87;;;5.23;;
6852;SDS011;3465;42.144;24.722;2022-09-28T03:14:02;9.90;;;5.40;;
6852;SDS011;3465;42.144;24.722;2022-09-28T03:16:28;8.73;;;6.03;;
6852;SDS011;3465;42.144;24.722;2022-09-28T03:18:56;7.10;;;5.70;;
6852;SDS011;3465;42.144;24.722;2022-09-28T03:21:21;6.70;;;5.43;;
6852;SDS011;3465;42.144;24.722;2022-09-28T03:23:47;10.57;;;5.57;;
6852;SDS011;3465;42.144;24.722;2022-09-28T03:26:12;9.57;;;5.30;;
6852;SDS011;3465;42.144;24.722;2022-09-28T03:28:38;10.20;;;5.60;;
6852;SDS011;3465;42.144;24.722;2022-09-28T03:31:04;6.73;;;5.17;;
6852;SDS011;3465;42.144;24.722;2022-09-28T03:33:30;8.97;;;5.40;;
6852;SDS011;3465;42.144;24.722;2022-09-28T03:35:56;8.27;;;5.07;;
6852;SDS011;3465;42.144;24.722;2022-09-28T03:38:21;8.57;;;5.13;;
6852;SDS011;3465;42.144;24.722;2022-09-28T03:40:53;8.60;;;5.17;;
6852;SDS011;3465;42.144;24.722;2022-09-28T03:43:23;7.57;;;5.40;;
6852;SDS011;3465;42.144;24.722;2022-09-28T03:45:53;8.23;;;5.40;;
6852;SDS011;3465;42.144;24.722;2022-09-28T03:48:20;9.17;;;5.43;;
6852;SDS011;3465;42.144;24.722;2022-09-28T03:50:55;7.47;;;5.03;;
6852;SDS011;3465;42.144;24.722;2022-09-28T03:53:22;10.07;;;5.10;;
6852;SDS011;3465;42.144;24.722;2022-09-28T03:55:48;8.17;;;5.93;;
6852;SDS011;3465;42.144;24.722;2022-09-28T03:58:15;8.57;;;4.80;;
6852;SDS011;3465;42.144;24.722;2022-09-28T04:00:41;12.57;;;7.13;;
6852;SDS011;3465;42.144;24.722;2022-09-28T04:03:07;11.50;;;6.30;;
6852;SDS011;3465;42.144;24.722;2022-09-28T04:05:33;14.37;;;6.70;;
6852;SDS011;3465;42.144;24.722;2022-09-28T04:07:58;13.13;;;6.20;;
6852;SDS011;3465;42.144;24.722;2022-09-28T04:10:24;9.60;;;6.20;;
6852;SDS011;3465;42.144;24.722;2022-09-28T04:12:53;11.10;;;5.80;;
6852;SDS011;3465;42.144;24.722;2022-09-28T04:15:19;17.33;;;8.20;;
6852;SDS011;3465;42.144;24.722;2022-09-28T04:17:46;13.07;;;6.57;;
6852;SDS011;3465;42.144;24.722;2022-09-28T04:20:12;14.17;;;7.40;;
6852;SDS011;3465;42.144;24.722;2022-09-28T04:22:38;12.67;;;7.03;;
6852;SDS011;3465;42.144;24.722;2022-09-28T04:25:04;16.07;;;6.97;;
6852;SDS011;3465;42.144;24.722;2022-09-28T04:27:29;14.03;;;6.33;;
6852;SDS011;3465;42.144;24.722;2022-09-28T04:30:13;9.07;;;5.70;;
6852;SDS011;3465;42.144;24.722;2022-09-28T04:32:39;9.07;;;5.67;;
6852;SDS011;3465;42.144;24.722;2022-09-28T04:35:05;14.43;;;5.87;;
6852;SDS011;3465;42.144;24.722;2022-09-28T04:37:31;13.00;;;5.73;;
6852;SDS011;3465;42.144;24.722;2022-09-28T04:39:57;9.97;;;5.67;;
6852;SDS011;3465;42.144;24.722;2022-09-28T04:42:23;10.73;;;5.87;;
6852;SDS011;3465;42.144;24.722;2022-09-28T04:44:48;11.57;;;5.93;;
6852;SDS011;3465;42.144;24.722;2022-09-28T04:47:13;13.80;;;5.80;;
6852;SDS011;3465;42.144;24.722;2022-09-28T04:49:39;13.60;;;5.77;;
6852;SDS011;3465;42.144;24.722;2022-09-28T04:52:05;13.27;;;5.80;;
6852;SDS011;3465;42.144;24.722;2022-09-28T04:54:30;12.57;;;5.57;;
6852;SDS011;3465;42.144;24.722;2022-09-28T04:56:56;13.60;;;5.70;;
6852;SDS011;3465;42.144;24.722;2022-09-28T04:59:22;8.27;;;5.17;;
6852;SDS011;3465;42.144;24.722;2022-09-28T05:01:47;14.47;;;5.50;;
6852;SDS011;3465;42.144;24.722;2022-09-28T05:04:13;7.87;;;4.77;;
6852;SDS011;3465;42.144;24.722;2022-09-28T05:06:38;12.30;;;4.90;;
6852;SDS011;3465;42.144;24.722;2022-09-28T05:09:04;7.53;;;4.50;;
6852;SDS011;3465;42.144;24.722;2022-09-28T05:11:29;12.70;;;4.38;;
6852;SDS011;3465;42.144;24.722;2022-09-28T05:13:55;16.27;;;4.85;;
6852;SDS011;3465;42.144;24.722;2022-09-28T05:16:20;10.52;;;3.97;;
6852;SDS011;3465;42.144;24.722;2022-09-28T05:18:46;14.10;;;3.97;;
6852;SDS011;3465;42.144;24.722;2022-09-28T05:21:11;8.57;;;4.32;;
6852;SDS011;3465;42.144;24.722;2022-09-28T05:23:39;7.03;;;3.75;;
6852;SDS011;3465;42.144;24.722;2022-09-28T05:26:05;9.02;;;3.53;;
6852;SDS011;3465;42.144;24.722;2022-09-28T05:28:31;14.35;;;4.30;;
6852;SDS011;3465;42.144;24.722;2022-09-28T05:31:00;14.45;;;4.82;;
6852;SDS011;3465;42.144;24.722;2022-09-28T05:33:28;10.80;;;4.30;;
6852;SDS011;3465;42.144;24.722;2022-09-28T05:35:54;14.98;;;4.45;;
6852;SDS011;3465;42.144;24.722;2022-09-28T05:38:19;8.35;;;3.90;;
6852;SDS011;3465;42.144;24.722;2022-09-28T05:40:45;7.15;;;3.00;;
6852;SDS011;3465;42.144;24.722;2022-09-28T05:43:10;3.58;;;2.90;;
6852;SDS011;3465;42.144;24.722;2022-09-28T05:45:35;6.63;;;2.75;;
6852;SDS011;3465;42.144;24.722;2022-09-28T05:48:01;11.00;;;3.10;;
6852;SDS011;3465;42.144;24.722;2022-09-28T05:50:26;14.60;;;3.60;;
6852;SDS011;3465;42.144;24.722;2022-09-28T05:53:02;6.00;;;3.10;;
6852;SDS011;3465;42.144;24.722;2022-09-28T05:55:29;9.15;;;2.88;;
6852;SDS011;3465;42.144;24.722;2022-09-28T05:57:56;7.45;;;2.80;;
6852;SDS011;3465;42.144;24.722;2022-09-28T06:00:26;8.98;;;2.85;;
6852;SDS011;3465;42.144;24.722;2022-09-28T06:02:55;6.88;;;2.67;;
6852;SDS011;3465;42.144;24.722;2022-09-28T06:05:23;3.13;;;2.20;;
6852;SDS011;3465;42.144;24.722;2022-09-28T06:07:48;5.50;;;2.60;;
6852;SDS011;3465;42.144;24.722;2022-09-28T06:10:14;7.22;;;3.00;;
6852;SDS011;3465;42.144;24.722;2022-09-28T06:12:39;11.35;;;3.25;;
6852;SDS011;3465;42.144;24.722;2022-09-28T06:15:05;11.07;;;3.28;;
6852;SDS011;3465;42.144;24.722;2022-09-28T06:17:31;9.38;;;2.80;;
6852;SDS011;3465;42.144;24.722;2022-09-28T06:19:56;3.25;;;2.20;;
6852;SDS011;3465;42.144;24.722;2022-09-28T06:22:23;6.60;;;2.08;;
6852;SDS011;3465;42.144;24.722;2022-09-28T06:24:48;8.63;;;2.55;;
6852;SDS011;3465;42.144;24.722;2022-09-28T06:27:14;8.90;;;2.28;;
6852;SDS011;3465;42.144;24.722;2022-09-28T06:29:39;6.38;;;2.10;;
6852;SDS011;3465;42.144;24.722;2022-09-28T06:32:05;5.32;;;2.45;;
6852;SDS011;3465;42.144;24.722;2022-09-28T06:34:31;6.00;;;2.00;;
6852;SDS011;3465;42.144;24.722;2022-09-28T06:36:57;3.40;;;2.22;;
6852;SDS011;3465;42.144;24.722;2022-09-28T06:39:22;9.02;;;2.50;;
6852;SDS011;3465;42.144;24.722;2022-09-28T06:41:48;6.95;;;2.10;;
6852;SDS011;3465;42.144;24.722;2022-09-28T06:44:13;11.70;;;2.80;;
6852;SDS011;3465;42.144;24.722;2022-09-28T06:46:39;14.00;;;4.65;;
6852;SDS011;3465;42.144;24.722;2022-09-28T06:49:05;7.18;;;2.50;;
6852;SDS011;3465;42.144;24.722;2022-09-28T06:51:33;9.30;;;2.85;;
6852;SDS011;3465;42.144;24.722;2022-09-28T06:53:59;5.50;;;2.33;;
6852;SDS011;3465;42.144;24.722;2022-09-28T06:56:24;5.97;;;2.30;;
6852;SDS011;3465;42.144;24.722;2022-09-28T06:58:50;6.82;;;2.28;;
6852;SDS011;3465;42.144;24.722;2022-09-28T07:01:15;5.68;;;2.60;;
6852;SDS011;3465;42.144;24.722;2022-09-28T07:03:41;8.30;;;2.05;;
6852;SDS011;3465;42.144;24.722;2022-09-28T07:06:08;6.13;;;2.35;;
6852;SDS011;3465;42.144;24.722;2022-09-28T07:08:35;9.00;;;2.40;;
6852;SDS011;3465;42.144;24.722;2022-09-28T07:11:03;15.52;;;3.28;;
6852;SDS011;3465;42.144;24.722;2022-09-28T07:13:31;8.68;;;2.35;;
6852;SDS011;3465;42.144;24.722;2022-09-28T07:15:56;10.15;;;2.40;;
6852;SDS011;3465;42.144;24.722;2022-09-28T07:18:26;13.02;;;2.42;;
6852;SDS011;3465;42.144;24.722;2022-09-28T07:20:56;16.17;;;2.20;;
6852;SDS011;3465;42.144;24.722;2022-09-28T07:23:23;7.72;;;2.45;;
6852;SDS011;3465;42.144;24.722;2022-09-28T07:25:51;11.73;;;2.67;;
6852;SDS011;3465;42.144;24.722;2022-09-28T07:28:17;3.00;;;1.98;;
6852;SDS011;3465;42.144;24.722;2022-09-28T07:30:44;8.32;;;2.30;;
6852;SDS011;3465;42.144;24.722;2022-09-28T07:33:10;4.85;;;2.40;;
6852;SDS011;3465;42.144;24.722;2022-09-28T07:35:38;6.00;;;1.85;;
6852;SDS011;3465;42.144;24.722;2022-09-28T07:38:06;7.07;;;1.83;;
6852;SDS011;3465;42.144;24.722;2022-09-28T07:40:34;11.10;;;2.30;;
6852;SDS011;3465;42.144;24.722;2022-09-28T07:43:19;7.07;;;2.03;;
6852;SDS011;3465;42.144;24.722;2022-09-28T07:45:46;4.25;;;1.85;;
6852;SDS011;3465;42.144;24.722;2022-09-28T07:48:13;6.82;;;1.83;;
6852;SDS011;3465;42.144;24.722;2022-09-28T07:50:52;5.07;;;2.05;;
6852;SDS011;3465;42.144;24.722;2022-09-28T07:53:21;8.07;;;1.80;;
6852;SDS011;3465;42.144;24.722;2022-09-28T07:55:55;5.70;;;1.98;;
6852;SDS011;3465;42.144;24.722;2022-09-28T07:58:29;7.20;;;2.17;;
6852;SDS011;3465;42.144;24.722;2022-09-28T08:00:56;6.40;;;2.05;;
6852;SDS011;3465;42.144;24.722;2022-09-28T08:03:25;2.83;;;1.70;;
6852;SDS011;3465;42.144;24.722;2022-09-28T08:05:55;7.10;;;2.15;;
6852;SDS011;3465;42.144;24.722;2022-09-28T08:08:25;7.15;;;2.38;;
6852;SDS011;3465;42.144;24.722;2022-09-28T08:10:51;8.23;;;2.38;;
6852;SDS011;3465;42.144;24.722;2022-09-28T08:13:17;5.15;;;2.08;;
6852;SDS011;3465;42.144;24.722;2022-09-28T08:15:43;7.95;;;2.78;;
6852;SDS011;3465;42.144;24.722;2022-09-28T08:18:12;4.50;;;2.63;;
6852;SDS011;3465;42.144;24.722;2022-09-28T08:20:38;5.45;;;2.35;;
6852;SDS011;3465;42.144;24.722;2022-09-28T08:23:21;2.92;;;1.60;;
6852;SDS011;3465;42.144;24.722;2022-09-28T08:25:48;4.72;;;1.60;;
6852;SDS011;3465;42.144;24.722;2022-09-28T08:28:16;4.63;;;1.90;;
6852;SDS011;3465;42.144;24.722;2022-09-28T08:30:42;5.30;;;1.73;;
6852;SDS011;3465;42.144;24.722;2022-09-28T08:33:09;6.85;;;1.85;;
6852;SDS011;3465;42.144;24.722;2022-09-28T08:35:36;6.55;;;1.80;;
6852;SDS011;3465;42.144;24.722;2022-09-28T08:38:01;3.67;;;1.98;;
6852;SDS011;3465;42.144;24.722;2022-09-28T08:40:27;6.03;;;2.17;;
6852;SDS011;3465;42.144;24.722;2022-09-28T08:42:59;6.82;;;2.10;;
6852;SDS011;3465;42.144;24.722;2022-09-28T08:45:28;3.30;;;1.63;;
6852;SDS011;3465;42.144;24.722;2022-09-28T08:50:55;3.95;;;1.70;;
6852;SDS011;3465;42.144;24.722;2022-09-28T08:53:41;3.17;;;1.73;;
6852;SDS011;3465;42.144;24.722;2022-09-28T08:59:05;4.38;;;1.67;;
6852;SDS011;3465;42.144;24.722;2022-09-28T09:01:38;4.88;;;1.52;;
6852;SDS011;3465;42.144;24.722;2022-09-28T09:04:08;3.83;;;1.55;;
6852;SDS011;3465;42.144;24.722;2022-09-28T09:09:02;3.25;;;1.80;;
6852;SDS011;3465;42.144;24.722;2022-09-28T09:34:39;4.20;;;1.75;;
6852;SDS011;3465;42.144;24.722;2022-09-28T09:37:32;3.83;;;1.92;;
6852;SDS011;3465;42.144;24.722;2022-09-28T09:48:14;4.13;;;1.58;;
6852;SDS011;3465;42.144;24.722;2022-09-28T09:50:59;5.57;;;2.05;;
6852;SDS011;3465;42.144;24.722;2022-09-28T09:53:30;6.10;;;2.53;;
6852;SDS011;3465;42.144;24.722;2022-09-28T09:56:21;4.47;;;1.70;;
6852;SDS011;3465;42.144;24.722;2022-09-28T09:58:55;4.45;;;1.65;;
6852;SDS011;3465;42.144;24.722;2022-09-28T10:01:37;2.90;;;1.85;;
6852;SDS011;3465;42.144;24.722;2022-09-28T10:04:05;3.75;;;1.58;;
6852;SDS011;3465;42.144;24.722;2022-09-28T10:06:39;3.28;;;1.70;;
6852;SDS011;3465;42.144;24.722;2022-09-28T10:09:13;3.63;;;1.42;;
6852;SDS011;3465;42.144;24.722;2022-09-28T10:11:55;3.22;;;1.70;;
6852;SDS011;3465;42.144;24.722;2022-09-28T10:14:22;4.50;;;1.55;;
6852;SDS011;3465;42.144;24.722;2022-09-28T10:16:51;3.67;;;1.70;;
6852;SDS011;3465;42.144;24.722;2022-09-28T10:19:19;4.28;;;1.50;;
6852;SDS011;3465;42.144;24.722;2022-09-28T10:21:49;1.55;;;1.30;;
6852;SDS011;3465;42.144;24.722;2022-09-28T10:24:35;1.52;;;1.40;;
6852;SDS011;3465;42.144;24.722;2022-09-28T10:27:06;4.07;;;1.80;;
6852;SDS011;3465;42.144;24.722;2022-09-28T10:29:48;8.35;;;2.30;;
6852;SDS011;3465;42.144;24.722;2022-09-28T10:32:18;4.90;;;2.47;;
6852;SDS011;3465;42.144;24.722;2022-09-28T10:34:45;3.20;;;1.90;;
6852;SDS011;3465;42.144;24.722;2022-09-28T10:37:11;6.18;;;2.35;;
6852;SDS011;3465;42.144;24.722;2022-09-28T10:39:48;4.10;;;2.10;;
6852;SDS011;3465;42.144;24.722;2022-09-28T10:42:21;5.40;;;2.30;;
6852;SDS011;3465;42.144;24.722;2022-09-28T10:47:25;8.13;;;2.47;;
6852;SDS011;3465;42.144;24.722;2022-09-28T10:49:54;5.60;;;2.30;;
6852;SDS011;3465;42.144;24.722;2022-09-28T10:52:31;5.25;;;2.10;;
6852;SDS011;3465;42.144;24.722;2022-09-28T10:57:51;6.72;;;1.90;;
6852;SDS011;3465;42.144;24.722;2022-09-28T11:03:01;4.65;;;2.13;;
6852;SDS011;3465;42.144;24.722;2022-09-28T11:05:27;8.63;;;2.10;;
6852;SDS011;3465;42.144;24.722;2022-09-28T11:07:54;9.70;;;3.00;;
6852;SDS011;3465;42.144;24.722;2022-09-28T11:10:30;4.72;;;2.08;;
6852;SDS011;3465;42.144;24.722;2022-09-28T11:12:57;7.93;;;2.35;;
6852;SDS011;3465;42.144;24.722;2022-09-28T11:15:27;6.38;;;2.13;;
6852;SDS011;3465;42.144;24.722;2022-09-28T11:17:55;10.52;;;2.28;;
6852;SDS011;3465;42.144;24.722;2022-09-28T11:20:28;5.28;;;2.20;;
6852;SDS011;3465;42.144;24.722;2022-09-28T11:23:00;4.30;;;1.98;;
6852;SDS011;3465;42.144;24.722;2022-09-28T11:25:40;7.32;;;2.35;;
6852;SDS011;3465;42.144;24.722;2022-09-28T11:28:12;4.90;;;2.10;;
6852;SDS011;3465;42.144;24.722;2022-09-28T11:30:48;11.88;;;3.72;;
6852;SDS011;3465;42.144;24.722;2022-09-28T11:33:23;3.83;;;2.03;;
6852;SDS011;3465;42.144;24.722;2022-09-28T11:38:35;6.95;;;2.08;;
6852;SDS011;3465;42.144;24.722;2022-09-28T11:51:56;5.90;;;1.95;;
6852;SDS011;3465;42.144;24.722;2022-09-28T11:54:28;8.00;;;2.38;;
6852;SDS011;3465;42.144;24.722;2022-09-28T11:57:00;4.35;;;2.05;;
6852;SDS011;3465;42.144;24.722;2022-09-28T11:59:36;6.85;;;1.95;;
6852;SDS011;3465;42.144;24.722;2022-09-28T12:07:59;3.97;;;1.90;;
6852;SDS011;3465;42.144;24.722;2022-09-28T12:10:31;12.27;;;2.53;;
6852;SDS011;3465;42.144;24.722;2022-09-28T12:19:03;4.25;;;1.67;;
6852;SDS011;3465;42.144;24.722;2022-09-28T12:26:57;2.25;;;1.52;;
6852;SDS011;3465;42.144;24.722;2022-09-28T12:29:31;4.35;;;1.55;;
6852;SDS011;3465;42.144;24.722;2022-09-28T12:35:13;3.47;;;1.80;;
6852;SDS011;3465;42.144;24.722;2022-09-28T12:38:09;2.88;;;1.80;;
6852;SDS011;3465;42.144;24.722;2022-09-28T12:57:41;4.47;;;1.60;;
6852;SDS011;3465;42.144;24.722;2022-09-28T13:00:16;3.50;;;1.80;;
6852;SDS011;3465;42.144;24.722;2022-09-28T13:05:39;4.88;;;1.65;;
6852;SDS011;3465;42.144;24.722;2022-09-28T13:16:19;4.18;;;1.85;;
6852;SDS011;3465;42.144;24.722;2022-09-28T13:18:49;6.90;;;1.75;;
6852;SDS011;3465;42.144;24.722;2022-09-28T13:21:40;9.45;;;2.40;;
6852;SDS011;3465;42.144;24.722;2022-09-28T13:24:17;5.78;;;2.03;;
6852;SDS011;3465;42.144;24.722;2022-09-28T13:26:50;4.97;;;1.80;;
6852;SDS011;3465;42.144;24.722;2022-09-28T13:29:18;4.05;;;1.70;;
6852;SDS011;3465;42.144;24.722;2022-09-28T13:34:23;2.75;;;1.88;;
6852;SDS011;3465;42.144;24.722;2022-09-28T13:42:09;2.40;;;1.60;;
6852;SDS011;3465;42.144;24.722;2022-09-28T13:48:12;3.13;;;1.60;;
6852;SDS011;3465;42.144;24.722;2022-09-28T13:50:30;7.00;;;1.95;;
6852;SDS011;3465;42.144;24.722;2022-09-28T13:58:55;4.93;;;2.25;;
6852;SDS011;3465;42.144;24.722;2022-09-28T14:01:40;3.08;;;2.17;;
6852;SDS011;3465;42.144;24.722;2022-09-28T14:06:55;5.57;;;1.80;;
6852;SDS011;3465;42.144;24.722;2022-09-28T14:09:39;2.53;;;1.90;;
6852;SDS011;3465;42.144;24.722;2022-09-28T14:20:20;4.57;;;2.53;;
6852;SDS011;3465;42.144;24.722;2022-09-28T14:25:30;3.08;;;2.05;;
6852;SDS011;3465;42.144;24.722;2022-09-28T14:28:06;5.03;;;2.17;;
6852;SDS011;3465;42.144;24.722;2022-09-28T14:30:51;5.45;;;1.70;;
6852;SDS011;3465;42.144;24.722;2022-09-28T14:33:28;4.53;;;1.85;;
6852;SDS011;3465;42.144;24.722;2022-09-28T14:36:03;5.10;;;1.65;;
6852;SDS011;3465;42.144;24.722;2022-09-28T14:38:34;2.58;;;1.50;;
6852;SDS011;3465;42.144;24.722;2022-09-28T14:41:31;4.30;;;1.85;;
6852;SDS011;3465;42.144;24.722;2022-09-28T14:44:06;4.82;;;1.92;;
6852;SDS011;3465;42.144;24.722;2022-09-28T14:46:37;3.83;;;1.98;;
6852;SDS011;3465;42.144;24.722;2022-09-28T14:59:17;2.70;;;1.83;;
6852;SDS011;3465;42.144;24.722;2022-09-28T15:02:03;3.85;;;2.00;;
6852;SDS011;3465;42.144;24.722;2022-09-28T15:04:42;5.03;;;1.95;;
6852;SDS011;3465;42.144;24.722;2022-09-28T15:07:17;4.88;;;2.25;;
6852;SDS011;3465;42.144;24.722;2022-09-28T15:09:46;8.10;;;2.50;;
6852;SDS011;3465;42.144;24.722;2022-09-28T15:12:14;5.57;;;2.30;;
6852;SDS011;3465;42.144;24.722;2022-09-28T15:14:46;5.90;;;2.33;;
6852;SDS011;3465;42.144;24.722;2022-09-28T15:17:15;9.05;;;2.35;;
6852;SDS011;3465;42.144;24.722;2022-09-28T15:19:52;7.97;;;2.35;;
6852;SDS011;3465;42.144;24.722;2022-09-28T15:22:24;7.43;;;2.72;;
6852;SDS011;3465;42.144;24.722;2022-09-28T15:24:58;5.43;;;2.28;;
6852;SDS011;3465;42.144;24.722;2022-09-28T15:27:32;11.98;;;2.75;;
6852;SDS011;3465;42.144;24.722;2022-09-28T15:30:01;5.85;;;2.25;;
6852;SDS011;3465;42.144;24.722;2022-09-28T15:32:42;7.18;;;1.90;;
6852;SDS011;3465;42.144;24.722;2022-09-28T15:35:11;5.47;;;1.90;;
6852;SDS011;3465;42.144;24.722;2022-09-28T15:37:41;4.32;;;1.70;;
6852;SDS011;3465;42.144;24.722;2022-09-28T15:40:11;6.40;;;1.70;;
6852;SDS011;3465;42.144;24.722;2022-09-28T15:42:40;6.32;;;1.83;;
6852;SDS011;3465;42.144;24.722;2022-09-28T15:47:56;7.25;;;1.77;;
6852;SDS011;3465;42.144;24.722;2022-09-28T15:50:44;4.50;;;2.08;;
6852;SDS011;3465;42.144;24.722;2022-09-28T15:53:27;4.78;;;1.95;;
6852;SDS011;3465;42.144;24.722;2022-09-28T15:55:58;4.95;;;2.00;;
6852;SDS011;3465;42.144;24.722;2022-09-28T15:58:25;3.00;;;2.08;;
6852;SDS011;3465;42.144;24.722;2022-09-28T16:01:16;4.30;;;2.28;;
6852;SDS011;3465;42.144;24.722;2022-09-28T16:04:00;4.90;;;2.00;;
6852;SDS011;3465;42.144;24.722;2022-09-28T16:07:02;3.88;;;2.08;;
6852;SDS011;3465;42.144;24.722;2022-09-28T16:12:19;7.20;;;2.60;;
6852;SDS011;3465;42.144;24.722;2022-09-28T16:14:49;8.68;;;2.80;;
6852;SDS011;3465;42.144;24.722;2022-09-28T16:17:17;7.35;;;2.65;;
6852;SDS011;3465;42.144;24.722;2022-09-28T16:19:55;8.52;;;2.85;;
6852;SDS011;3465;42.144;24.722;2022-09-28T16:22:20;8.15;;;2.92;;
6852;SDS011;3465;42.144;24.722;2022-09-28T16:24:56;8.20;;;3.70;;
6852;SDS011;3465;42.144;24.722;2022-09-28T16:32:36;11.07;;;4.15;;
6852;SDS011;3465;42.144;24.722;2022-09-28T16:37:40;7.63;;;3.55;;
6852;SDS011;3465;42.144;24.722;2022-09-28T16:40:10;9.57;;;3.78;;
6852;SDS011;3465;42.144;24.722;2022-09-28T16:42:39;13.20;;;4.63;;
6852;SDS011;3465;42.144;24.722;2022-09-28T16:45:10;17.65;;;4.65;;
6852;SDS011;3465;42.144;24.722;2022-09-28T16:47:44;13.55;;;4.82;;
6852;SDS011;3465;42.144;24.722;2022-09-28T16:50:14;9.02;;;4.60;;
6852;SDS011;3465;42.144;24.722;2022-09-28T16:52:40;25.48;;;8.60;;
6852;SDS011;3465;42.144;24.722;2022-09-28T16:55:24;21.48;;;7.63;;
6852;SDS011;3465;42.144;24.722;2022-09-28T16:57:49;26.48;;;11.07;;
6852;SDS011;3465;42.144;24.722;2022-09-28T17:00:16;33.33;;;12.73;;
6852;SDS011;3465;42.144;24.722;2022-09-28T17:02:45;76.38;;;23.25;;
6852;SDS011;3465;42.144;24.722;2022-09-28T17:05:15;132.70;;;40.08;;
6852;SDS011;3465;42.144;24.722;2022-09-28T17:07:41;201.35;;;57.20;;
6852;SDS011;3465;42.144;24.722;2022-09-28T17:10:20;100.55;;;33.00;;
6852;SDS011;3465;42.144;24.722;2022-09-28T17:12:56;72.13;;;23.45;;
6852;SDS011;3465;42.144;24.722;2022-09-28T17:15:21;76.13;;;28.48;;
6852;SDS011;3465;42.144;24.722;2022-09-28T17:17:49;35.35;;;14.82;;
6852;SDS011;3465;42.144;24.722;2022-09-28T17:20:22;50.72;;;20.35;;
6852;SDS011;3465;42.144;24.722;2022-09-28T17:22:50;34.47;;;13.25;;
6852;SDS011;3465;42.144;24.722;2022-09-28T17:25:17;40.47;;;15.00;;
6852;SDS011;3465;42.144;24.722;2022-09-28T17:27:44;37.42;;;14.60;;
6852;SDS011;3465;42.144;24.722;2022-09-28T17:30:11;51.75;;;19.08;;
6852;SDS011;3465;42.144;24.722;2022-09-28T17:32:37;54.45;;;19.40;;
6852;SDS011;3465;42.144;24.722;2022-09-28T17:35:08;56.15;;;21.13;;
6852;SDS011;3465;42.144;24.722;2022-09-28T17:37:35;37.97;;;13.38;;
6852;SDS011;3465;42.144;24.722;2022-09-28T17:40:01;38.20;;;16.98;;
6852;SDS011;3465;42.144;24.722;2022-09-28T17:42:36;34.95;;;16.38;;
6852;SDS011;3465;42.144;24.722;2022-09-28T17:45:02;32.85;;;14.75;;
6852;SDS011;3465;42.144;24.722;2022-09-28T17:47:27;25.77;;;10.55;;
6852;SDS011;3465;42.144;24.722;2022-09-28T17:49:53;17.42;;;9.20;;
6852;SDS011;3465;42.144;24.722;2022-09-28T17:52:18;39.45;;;15.48;;
6852;SDS011;3465;42.144;24.722;2022-09-28T17:54:44;29.45;;;14.27;;
6852;SDS011;3465;42.144;24.722;2022-09-28T17:57:09;26.92;;;11.68;;
6852;SDS011;3465;42.144;24.722;2022-09-28T17:59:35;22.30;;;10.55;;
6852;SDS011;3465;42.144;24.722;2022-09-28T18:02:00;22.88;;;9.75;;
6852;SDS011;3465;42.144;24.722;2022-09-28T18:04:26;17.45;;;7.97;;
6852;SDS011;3465;42.144;24.722;2022-09-28T18:06:51;13.13;;;5.40;;
6852;SDS011;3465;42.144;24.722;2022-09-28T18:09:17;12.32;;;4.22;;
6852;SDS011;3465;42.144;24.722;2022-09-28T18:11:48;10.35;;;4.20;;
6852;SDS011;3465;42.144;24.722;2022-09-28T18:14:17;6.40;;;3.45;;
6852;SDS011;3465;42.144;24.722;2022-09-28T18:16:42;8.32;;;4.00;;
6852;SDS011;3465;42.144;24.722;2022-09-28T18:19:11;10.27;;;3.78;;
6852;SDS011;3465;42.144;24.722;2022-09-28T18:21:36;20.63;;;4.45;;
6852;SDS011;3465;42.144;24.722;2022-09-28T18:24:02;8.63;;;3.42;;
6852;SDS011;3465;42.144;24.722;2022-09-28T18:26:27;5.97;;;3.00;;
6852;SDS011;3465;42.144;24.722;2022-09-28T18:28:53;7.80;;;3.05;;
6852;SDS011;3465;42.144;24.722;2022-09-28T18:31:19;8.00;;;2.60;;
6852;SDS011;3465;42.144;24.722;2022-09-28T18:33:44;6.53;;;2.70;;
6852;SDS011;3465;42.144;24.722;2022-09-28T18:36:10;8.15;;;2.15;;
6852;SDS011;3465;42.144;24.722;2022-09-28T18:38:35;4.22;;;2.10;;